createdAt,value
2022-12-18T00:01:20.191Z,63.72
2022-12-18T00:06:40.827Z,63.30
2022-12-18T00:17:36.462Z,65.07
2022-12-18T00:22:57.455Z,71.45
2022-12-18T00:28:18.244Z,73.43
2022-12-18T00:33:39.519Z,89.75
2022-12-18T00:39:05.605Z,71.47
2022-12-18T00:44:26.040Z,75.30
2022-12-18T00:49:46.391Z,73.93
2022-12-18T00:55:07.831Z,71.30
2022-12-18T01:00:28.373Z,77.80
2022-12-18T01:05:49.079Z,87.25
2022-12-18T01:11:12.785Z,86.30
2022-12-18T01:16:33.237Z,70.65
2022-12-18T01:21:53.582Z,73.05
2022-12-18T01:27:14.419Z,80.57
2022-12-18T01:32:35.363Z,71.38
2022-12-18T01:37:56.860Z,84.72
2022-12-18T01:43:17.174Z,75.80
2022-12-18T01:48:39.678Z,60.50
2022-12-18T01:54:00.844Z,81.68
2022-12-18T01:59:21.398Z,75.70
2022-12-18T02:04:46.324Z,58.28
2022-12-18T02:10:26.437Z,78.75
2022-12-18T02:15:57.350Z,59.65
2022-12-18T02:21:40.087Z,78.18
2022-12-18T02:27:04.379Z,68.00
2022-12-18T02:32:37.463Z,49.08
2022-12-18T02:37:58.984Z,46.22
2022-12-18T02:43:21.847Z,50.70
2022-12-18T02:48:43.871Z,68.90
2022-12-18T02:54:22.540Z,41.65
2022-12-18T02:59:59.035Z,55.15
2022-12-18T03:05:34.166Z,60.35
2022-12-18T03:11:07.711Z,48.88
2022-12-18T03:16:32.016Z,50.72
2022-12-18T03:21:56.724Z,44.80
2022-12-18T03:27:22.142Z,50.65
2022-12-18T03:33:09.217Z,46.60
2022-12-18T03:47:26.486Z,47.13
2022-12-18T03:52:58.265Z,38.00
2022-12-18T03:58:24.339Z,49.40
2022-12-18T04:04:11.389Z,48.92
2022-12-18T04:09:36.154Z,42.53
2022-12-18T04:14:58.037Z,59.90
2022-12-18T04:20:19.291Z,47.63
2022-12-18T04:25:41.186Z,58.60
2022-12-18T04:31:05.752Z,45.13
2022-12-18T04:36:26.341Z,66.35
2022-12-18T04:41:47.581Z,69.55
2022-12-18T04:47:08.631Z,59.70
2022-12-18T04:52:29.028Z,65.72
2022-12-18T04:57:50.156Z,58.25
2022-12-18T05:03:10.651Z,64.82
2022-12-18T05:08:31.822Z,53.85
2022-12-18T05:13:52.680Z,60.60
2022-12-18T05:19:13.266Z,55.80
2022-12-18T05:24:34.156Z,63.35
2022-12-18T05:29:54.761Z,53.10
2022-12-18T05:35:17.488Z,49.50
2022-12-18T05:40:38.454Z,45.45
2022-12-18T05:46:04.983Z,63.85
2022-12-18T05:51:25.426Z,59.42
2022-12-18T05:56:48.814Z,52.83
2022-12-18T06:02:09.503Z,48.40
2022-12-18T06:07:30.159Z,58.55
2022-12-18T06:12:50.987Z,58.97
2022-12-18T06:18:11.631Z,63.33
2022-12-18T06:23:31.898Z,51.92
2022-12-18T06:28:52.510Z,56.20
2022-12-18T06:34:13.039Z,65.18
2022-12-18T06:39:33.439Z,50.17
2022-12-18T06:44:54.637Z,45.58
2022-12-18T06:50:15.781Z,56.58
2022-12-18T06:55:36.408Z,61.67
2022-12-18T07:01:04.736Z,48.42
2022-12-18T07:06:27.164Z,53.88
2022-12-18T07:11:47.688Z,47.22
2022-12-18T07:17:08.362Z,57.00
2022-12-18T07:22:29.288Z,49.60
2022-12-18T07:27:50.749Z,60.53
2022-12-18T07:33:11.391Z,56.90
2022-12-18T07:38:32.979Z,50.53
2022-12-18T07:43:53.169Z,47.40
2022-12-18T07:49:13.985Z,62.30
2022-12-18T07:54:34.847Z,64.30
2022-12-18T07:59:58.890Z,48.50
2022-12-18T08:05:27.053Z,42.92
2022-12-18T08:10:47.686Z,52.92
2022-12-18T08:16:08.568Z,51.13
2022-12-18T08:21:31.234Z,44.03
2022-12-18T08:27:20.732Z,60.85
2022-12-18T08:32:33.901Z,48.60
2022-12-18T08:37:55.328Z,45.15
2022-12-18T08:43:34.268Z,36.70
2022-12-18T08:48:57.025Z,39.28
2022-12-18T08:54:24.136Z,48.97
2022-12-18T08:59:50.408Z,36.00
2022-12-18T09:05:12.407Z,42.67
2022-12-18T09:10:33.092Z,37.38
2022-12-18T09:15:55.425Z,38.00
2022-12-18T09:21:18.391Z,44.20
2022-12-18T09:26:38.619Z,47.30
2022-12-18T09:32:00.330Z,39.75
2022-12-18T09:37:21.216Z,34.80
2022-12-18T09:42:50.025Z,35.75
2022-12-18T09:48:23.009Z,34.85
2022-12-18T09:53:51.105Z,44.33
2022-12-18T09:59:35.091Z,36.33
2022-12-18T10:04:55.631Z,31.40
2022-12-18T10:10:32.761Z,34.08
2022-12-18T10:16:28.610Z,37.13
2022-12-18T10:22:16.774Z,30.95
2022-12-18T10:27:37.242Z,28.05
2022-12-18T10:33:02.394Z,33.83
2022-12-18T10:38:29.256Z,27.63
2022-12-18T10:44:20.019Z,29.85
2022-12-18T10:49:49.185Z,28.92
2022-12-18T10:55:17.721Z,28.13
2022-12-18T11:00:38.495Z,28.40
2022-12-18T11:06:07.043Z,27.55
2022-12-18T11:11:27.967Z,27.42
2022-12-18T11:17:23.769Z,35.38
2022-12-18T11:22:34.999Z,19.75
2022-12-18T11:27:58.927Z,15.65
2022-12-18T11:33:23.102Z,17.47
2022-12-18T11:44:11.228Z,24.20
2022-12-18T11:49:36.166Z,21.88
2022-12-18T11:55:02.300Z,20.90
2022-12-18T12:00:24.043Z,17.50
2022-12-18T12:06:02.648Z,15.38
2022-12-18T12:11:28.862Z,16.58
2022-12-18T12:16:59.876Z,12.13
2022-12-18T12:22:40.980Z,16.60
2022-12-18T12:28:25.383Z,21.58
2022-12-18T12:34:02.179Z,19.90
2022-12-18T12:39:31.169Z,14.63
2022-12-18T12:44:58.330Z,14.90
2022-12-18T12:50:21.104Z,15.68
2022-12-18T12:55:43.635Z,16.38
2022-12-18T13:01:23.089Z,18.17
2022-12-18T13:06:54.108Z,13.30
2022-12-18T13:12:35.927Z,15.57
2022-12-18T13:18:28.304Z,14.68
2022-12-18T13:23:49.415Z,19.48
2022-12-18T13:29:10.114Z,13.63
2022-12-18T13:34:32.238Z,17.73
2022-12-18T13:39:53.598Z,24.58
2022-12-18T13:45:42.751Z,18.88
2022-12-18T13:51:07.235Z,14.82
2022-12-18T13:56:33.356Z,13.40
2022-12-18T14:01:59.975Z,13.48
2022-12-18T14:07:30.843Z,10.05
2022-12-18T14:13:00.871Z,11.30
2022-12-18T14:18:48.712Z,18.38
2022-12-18T14:29:31.610Z,19.20
2022-12-18T14:34:56.748Z,9.75
2022-12-18T14:40:17.454Z,11.90
2022-12-18T14:45:45.261Z,13.23
2022-12-18T14:51:07.286Z,16.83
2022-12-18T14:56:49.485Z,15.38
2022-12-18T15:02:21.339Z,13.05
2022-12-18T15:07:44.312Z,11.43
2022-12-18T15:13:04.917Z,15.10
2022-12-18T15:18:32.806Z,21.33
2022-12-18T15:23:57.381Z,12.68
2022-12-18T15:29:23.017Z,13.63
2022-12-18T15:34:43.651Z,16.25
2022-12-18T15:40:05.095Z,16.17
2022-12-18T15:45:25.628Z,17.77
2022-12-18T15:50:47.644Z,13.55
2022-12-18T15:56:34.605Z,16.20
2022-12-18T16:01:56.536Z,14.48
2022-12-18T16:07:24.885Z,16.92
2022-12-18T16:12:46.952Z,13.25
2022-12-18T16:18:08.222Z,13.73
2022-12-18T16:23:29.580Z,16.10
2022-12-18T16:28:50.159Z,14.55
2022-12-18T16:34:29.048Z,18.73
2022-12-18T16:39:49.669Z,17.10
2022-12-18T16:45:12.966Z,13.43
2022-12-18T16:50:33.501Z,14.07
2022-12-18T16:55:57.435Z,11.38
2022-12-18T17:01:17.916Z,12.82
2022-12-18T17:06:44.034Z,14.55
2022-12-18T17:12:04.823Z,15.30
2022-12-18T17:17:25.193Z,15.93
2022-12-18T17:22:45.786Z,19.58
2022-12-18T17:28:06.568Z,18.77
2022-12-18T17:33:26.950Z,11.18
2022-12-18T17:38:56.487Z,11.07
2022-12-18T17:44:17.743Z,16.75
2022-12-18T17:49:39.084Z,17.77
2022-12-18T17:54:59.436Z,13.18
2022-12-18T18:00:20.364Z,13.63
2022-12-18T18:05:40.980Z,13.80
2022-12-18T18:11:31.250Z,13.02
2022-12-18T18:16:52.575Z,13.10
2022-12-18T18:22:12.957Z,14.35
2022-12-18T18:27:38.348Z,14.57
2022-12-18T18:32:59.113Z,25.08
2022-12-18T18:38:19.624Z,15.55
2022-12-18T18:43:40.581Z,9.80
2022-12-18T18:49:01.770Z,11.32
2022-12-18T18:54:22.419Z,13.88
2022-12-18T18:59:43.286Z,10.68
2022-12-18T19:05:04.008Z,17.55
2022-12-18T19:10:24.782Z,11.80
2022-12-18T19:15:45.905Z,10.15
2022-12-18T19:21:06.608Z,16.55
2022-12-18T19:26:28.753Z,19.10
2022-12-18T19:31:49.533Z,15.98
2022-12-18T19:37:10.050Z,24.20
2022-12-18T19:42:35.272Z,22.88
2022-12-18T19:48:01.104Z,17.92
2022-12-18T19:53:24.883Z,21.63
2022-12-18T19:58:45.891Z,20.45
2022-12-18T20:04:06.833Z,15.50
2022-12-18T20:09:28.185Z,18.20
2022-12-18T20:14:49.346Z,26.85
2022-12-18T20:20:10.338Z,25.27
2022-12-18T20:25:30.704Z,26.60
2022-12-18T20:30:51.782Z,25.25
2022-12-18T20:36:19.145Z,23.40
2022-12-18T20:41:44.299Z,23.30
2022-12-18T20:54:37.443Z,24.25
2022-12-18T20:59:57.841Z,19.35
2022-12-18T21:05:18.623Z,23.13
2022-12-18T21:10:39.174Z,25.13
2022-12-18T21:16:00.120Z,20.83
2022-12-18T21:21:24.774Z,18.65
2022-12-18T21:26:48.496Z,19.52
2022-12-18T21:32:09.686Z,23.42
2022-12-18T21:37:30.029Z,19.40
2022-12-18T21:43:09.182Z,22.50
2022-12-18T21:48:31.075Z,18.45
2022-12-18T21:53:51.556Z,18.85
2022-12-18T21:59:21.838Z,20.98
2022-12-18T22:04:44.095Z,23.45
2022-12-18T22:10:05.015Z,22.95
2022-12-18T22:15:25.734Z,22.85
2022-12-18T22:20:48.063Z,15.35
2022-12-18T22:26:10.693Z,25.10
2022-12-18T22:31:31.202Z,19.20
2022-12-18T22:36:51.716Z,19.88
2022-12-18T22:42:12.013Z,22.42
2022-12-18T22:47:32.874Z,16.50
2022-12-18T22:52:53.396Z,22.77
2022-12-18T22:58:14.175Z,21.13
2022-12-18T23:03:35.242Z,19.77
2022-12-18T23:08:57.655Z,24.35
2022-12-18T23:14:18.178Z,15.70
2022-12-18T23:19:41.670Z,20.25
2022-12-18T23:25:05.175Z,20.25
2022-12-18T23:30:25.558Z,22.10
2022-12-18T23:35:45.872Z,14.30
2022-12-18T23:41:11.031Z,12.23
2022-12-18T23:46:33.909Z,20.08
2022-12-18T23:51:55.133Z,11.95
2022-12-18T23:57:15.598Z,17.38
